Time;durP1;ratioP1;P1;durP2;ratioP2;P2;SDS_P1;SDS_P2;PMS_P1;PMS_P2;Temp;Humidity;BMP_temperature;BMP_pressure;BME280_temperature;BME280_humidity;BME280_pressure;Samples;Min_cycle;Max_cycle;Signal;HPM_P1;HPM_P2
2023/08/13 00:00:32;;;;;;;;;4.50;3.00;;;;;22.45;50.46;101458.72;4998436;28;45635;-45
2023/08/13 00:02:58;;;;;;;;;4.25;2.50;;;;;22.38;50.47;101451.44;4998395;28;45507;-44
2023/08/13 00:05:23;;;;;;;;;6.75;3.25;;;;;22.38;50.89;101448.72;4998579;28;45456;-46
2023/08/13 00:07:48;;;;;;;;;4.75;3.75;;;;;22.36;50.47;101444.53;4998159;28;46177;-46
2023/08/13 00:10:14;;;;;;;;;6.25;3.00;;;;;22.35;51.07;101448.28;4998158;28;45321;-48
2023/08/13 00:12:39;;;;;;;;;5.25;3.00;;;;;22.35;50.55;101448.28;4998358;28;45246;-47
2023/08/13 00:15:05;;;;;;;;;3.75;2.50;;;;;22.33;51.03;101445.81;4998357;28;45798;-44
2023/08/13 00:17:30;;;;;;;;;4.25;3.25;;;;;22.32;51.16;101441.41;4998175;28;46281;-46
2023/08/13 00:19:55;;;;;;;;;6.00;4.25;;;;;22.31;51.12;101447.03;4998058;28;45460;-46
2023/08/13 00:22:21;;;;;;;;;3.00;2.50;;;;;22.29;51.14;101441.84;4998008;28;45519;-45
2023/08/13 00:24:47;;;;;;;;;4.00;2.00;;;;;22.26;50.94;101430.56;4998310;28;45395;-46
2023/08/13 00:27:12;;;;;;;;;5.25;4.50;;;;;22.25;51.00;101440.56;4997894;28;45398;-45
2023/08/13 00:29:40;;;;;;;;;1.75;1.25;;;;;22.22;51.61;101440.16;4998102;28;45412;-44
2023/08/13 00:32:05;;;;;;;;;4.00;3.20;;;;;22.19;51.67;101435.13;4997894;28;45410;-48
2023/08/13 00:34:31;;;;;;;;;2.50;2.50;;;;;22.15;51.70;101437.41;4998164;28;45291;-48
2023/08/13 00:36:56;;;;;;;;;5.00;3.00;;;;;22.13;51.92;101431.38;4997888;28;46192;-45
2023/08/13 00:39:21;;;;;;;;;7.00;3.00;;;;;22.05;51.85;101418.84;4997824;28;45344;-46
2023/08/13 00:41:47;;;;;;;;;5.75;2.25;;;;;22.02;52.05;101421.94;4997768;28;45374;-45
2023/08/13 00:44:12;;;;;;;;;3.25;3.00;;;;;22.03;51.86;101423.59;4998259;28;45440;-44
2023/08/13 00:46:38;;;;;;;;;3.75;2.00;;;;;21.99;52.11;101424.22;4997660;28;46148;-45
2023/08/13 00:49:03;;;;;;;;;5.25;2.00;;;;;21.96;52.31;101422.78;4997555;28;45456;-46
2023/08/13 00:51:29;;;;;;;;;5.00;3.00;;;;;21.94;52.56;101416.72;4996958;28;45345;-44
2023/08/13 00:53:55;;;;;;;;;3.00;2.25;;;;;21.83;52.51;101401.09;4997717;28;45508;-43
2023/08/13 00:56:22;;;;;;;;;4.20;1.80;;;;;21.88;52.85;101417.56;4997313;28;47189;-47
2023/08/13 00:58:47;;;;;;;;;2.60;2.00;;;;;21.89;52.74;101424.63;4997469;28;45366;-49
2023/08/13 01:01:13;;;;;;;;;2.25;2.25;;;;;21.83;53.11;101411.91;4997912;28;45303;-46
2023/08/13 01:03:38;;;;;;;;;3.00;3.00;;;;;21.78;53.13;101409.78;4997822;28;45357;-46
2023/08/13 01:06:13;;;;;;;;;6.25;3.00;;;;;21.82;53.36;101418.34;4997076;28;45584;-45
2023/08/13 01:08:57;;;;;;;;;5.00;3.00;;;;;21.80;53.34;101415.84;4997025;28;45248;-46
2023/08/13 01:11:51;;;;;;;;;4.20;2.60;;;;;21.80;52.85;101415.84;4996085;28;45390;-46
2023/08/13 01:14:48;;;;;;;;;5.50;3.00;;;;;21.77;52.43;101416.25;4997826;28;45409;-44
2023/08/13 01:17:17;;;;;;;;;3.00;2.50;;;;;21.77;52.83;101416.25;4997256;28;46193;-43
2023/08/13 01:19:42;;;;;;;;;3.80;2.00;;;;;21.76;53.11;101417.31;4997220;28;45307;-44
2023/08/13 01:22:08;;;;;;;;;3.50;3.50;;;;;21.73;53.35;101422.28;4996947;28;45348;-49
2023/08/13 01:24:33;;;;;;;;;3.50;2.50;;;;;21.74;53.39;101423.94;4997668;28;45393;-46
2023/08/13 01:27:28;;;;;;;;;3.00;3.00;;;;;21.74;53.37;101421.25;4996781;28;46210;-45
2023/08/13 01:30:08;;;;;;;;;3.00;3.00;;;;;21.74;53.48;101426.66;4996928;28;45342;-44
2023/08/13 01:32:39;;;;;;;;;3.20;2.00;;;;;21.73;53.64;101422.28;4997004;28;45384;-44
2023/08/13 01:35:07;;;;;;;;;3.25;3.25;;;;;21.68;54.21;101412.91;4997178;28;45494;-46
2023/08/13 01:37:33;;;;;;;;;4.20;3.00;;;;;21.71;54.02;101410.84;4996616;28;45460;-43
2023/08/13 01:39:58;;;;;;;;;3.80;2.60;;;;;21.70;53.84;101410.00;4996671;28;45407;-46
2023/08/13 01:42:23;;;;;;;;;5.50;4.00;;;;;21.71;54.41;101410.84;4995545;28;45653;-46
2023/08/13 01:44:49;;;;;;;;;2.25;1.75;;;;;21.69;53.96;101411.03;4997325;28;45437;-46
2023/08/13 01:47:14;;;;;;;;;2.00;2.00;;;;;21.67;54.10;101400.41;4995506;28;46992;-47
2023/08/13 01:49:39;;;;;;;;;3.00;3.00;;;;;21.68;54.32;101407.50;4996687;28;45341;-45
2023/08/13 01:52:05;;;;;;;;;7.50;2.00;;;;;21.64;54.01;101397.28;4996787;28;45489;-46
2023/08/13 01:54:30;;;;;;;;;3.00;2.25;;;;;21.66;54.02;101406.88;4997006;28;45390;-44
2023/08/13 01:56:56;;;;;;;;;2.75;2.75;;;;;21.66;54.33;101404.16;4996394;28;45573;-43
2023/08/13 01:59:21;;;;;;;;;3.00;3.00;;;;;21.60;54.29;101396.00;4996583;28;45219;-47
2023/08/13 02:01:46;;;;;;;;;6.25;2.75;;;;;21.63;54.47;101401.84;4996170;28;45270;-47
2023/08/13 02:04:11;;;;;;;;;3.00;2.25;;;;;21.62;54.55;101410.19;4995993;28;45298;-44
2023/08/13 02:06:37;;;;;;;;;4.50;1.50;;;;;21.56;54.82;101403.69;4996418;28;46955;-46
2023/08/13 02:09:02;;;;;;;;;4.00;2.50;;;;;21.55;54.19;101401.22;4996550;28;45568;-47
2023/08/13 02:11:28;;;;;;;;;5.75;2.25;;;;;21.51;55.37;101406.19;4996478;28;45361;-46
2023/08/13 02:13:53;;;;;;;;;3.75;2.00;;;;;21.48;54.79;101398.47;4996836;28;45455;-44
2023/08/13 02:16:19;;;;;;;;;2.00;1.00;;;;;21.46;54.76;101402.44;4996251;28;46112;-43
2023/08/13 02:18:44;;;;;;;;;4.75;2.50;;;;;21.36;55.45;101391.94;4996615;28;45449;-45
2023/08/13 02:21:09;;;;;;;;;3.75;2.50;;;;;21.38;54.69;101406.13;4996110;28;45393;-46
2023/08/13 02:23:35;;;;;;;;;2.00;2.00;;;;;21.35;55.51;101420.06;4996573;28;45412;-45
2023/08/13 02:26:00;;;;;;;;;3.00;2.00;;;;;21.33;55.60;101420.28;4996214;28;45443;-45
2023/08/13 02:28:25;;;;;;;;;4.00;3.00;;;;;21.24;55.93;101405.22;4996209;28;45430;-47
2023/08/13 02:30:51;;;;;;;;;3.75;3.00;;;;;21.27;55.96;101415.63;4995248;28;45346;-46
2023/08/13 02:33:17;;;;;;;;;5.25;2.25;;;;;21.26;56.28;101410.41;4996681;28;45440;-47
2023/08/13 02:35:42;;;;;;;;;3.00;1.00;;;;;21.25;55.78;101406.88;4996424;28;47307;-49
2023/08/13 02:38:07;;;;;;;;;5.00;3.25;;;;;21.19;56.37;101396.84;4996183;28;45369;-49
2023/08/13 02:40:33;;;;;;;;;4.50;2.25;;;;;21.20;55.90;101401.25;4996594;28;45426;-46
2023/08/13 02:42:58;;;;;;;;;4.75;2.75;;;;;21.17;56.61;101398.94;4996547;28;45790;-48
2023/08/13 02:45:24;;;;;;;;;5.00;2.00;;;;;21.18;56.27;101397.88;4996027;28;46082;-48
2023/08/13 02:47:49;;;;;;;;;4.00;2.00;;;;;21.18;56.09;101403.28;4996059;28;45506;-45
2023/08/13 02:50:15;;;;;;;;;4.00;2.50;;;;;21.15;55.90;101396.44;4996111;28;45509;-49
2023/08/13 02:52:40;;;;;;;;;5.00;2.00;;;;;21.16;56.21;101395.41;4996243;28;45301;-48
2023/08/13 02:55:06;;;;;;;;;4.75;2.00;;;;;21.14;56.07;101393.91;4995772;28;46124;-45
2023/08/13 02:57:31;;;;;;;;;3.25;2.00;;;;;21.10;56.55;101392.63;4995911;28;45445;-45
2023/08/13 02:59:56;;;;;;;;;2.75;1.75;;;;;21.06;56.94;101383.25;4995891;28;45231;-48
2023/08/13 03:02:22;;;;;;;;;5.00;1.75;;;;;21.09;56.73;101382.88;4996288;28;45310;-46
2023/08/13 03:04:47;;;;;;;;;3.25;2.00;;;;;21.07;56.41;101391.19;4995778;28;45365;-49
2023/08/13 03:07:12;;;;;;;;;6.00;2.00;;;;;21.00;57.08;101374.09;4996123;28;45299;-50
2023/08/13 03:09:38;;;;;;;;;5.25;2.00;;;;;21.03;56.77;101380.97;4995781;28;45376;-49
2023/08/13 03:12:03;;;;;;;;;2.00;2.00;;;;;21.04;56.89;101390.75;4995871;28;45418;-46
2023/08/13 03:14:29;;;;;;;;;2.00;2.00;;;;;21.02;57.30;101371.16;4997425;28;47137;-45
2023/08/13 03:16:54;;;;;;;;;3.25;2.25;;;;;20.97;57.57;101377.19;4999040;28;45408;-44
2023/08/13 03:19:19;;;;;;;;;5.50;3.00;;;;;20.98;57.58;101376.13;4999309;28;45345;-47
2023/08/13 03:21:45;;;;;;;;;3.25;1.50;;;;;21.00;57.60;101374.09;4999259;28;45567;-44
2023/08/13 03:24:10;;;;;;;;;2.25;1.75;;;;;20.91;57.53;101364.47;4999076;28;45357;-45
2023/08/13 03:26:35;;;;;;;;;5.25;3.50;;;;;20.98;57.87;101375.31;4998937;28;45457;-44
2023/08/13 03:29:01;;;;;;;;;4.25;3.00;;;;;20.96;57.49;101374.69;4998976;28;45339;-44
2023/08/13 03:31:26;;;;;;;;;3.75;3.75;;;;;20.98;57.81;101380.72;4999157;28;45514;-48
2023/08/13 03:33:52;;;;;;;;;6.00;3.00;;;;;20.96;57.40;101374.69;4997254;28;46657;-48
2023/08/13 03:36:17;;;;;;;;;4.00;3.00;;;;;20.99;57.58;101393.22;4998774;28;45392;-45
2023/08/13 03:38:42;;;;;;;;;9.00;3.75;;;;;20.96;58.23;101394.44;4998968;28;45382;-44
2023/08/13 03:41:09;;;;;;;;;5.00;4.75;;;;;20.92;58.62;101382.34;4998874;28;45531;-47
2023/08/13 03:43:34;;;;;;;;;5.50;2.75;;;;;20.86;57.83;101378.59;4998335;28;46259;-47
2023/08/13 03:46:01;;;;;;;;;3.50;2.00;;;;;20.86;58.97;101392.09;4998475;28;45453;-46
2023/08/13 03:48:27;;;;;;;;;2.25;2.00;;;;;20.81;58.95;101383.72;4998712;28;45207;-48
2023/08/13 03:50:52;;;;;;;;;2.00;2.00;;;;;20.78;58.69;101384.16;4998797;28;45476;-46
2023/08/13 03:53:22;;;;;;;;;6.25;3.00;;;;;20.80;58.63;101383.94;4998493;28;45376;-46
2023/08/13 03:55:47;;;;;;;;;2.00;2.00;;;;;20.76;58.95;101379.97;4998301;28;45564;-46
2023/08/13 03:58:13;;;;;;;;;4.50;3.25;;;;;20.74;58.85;101382.03;4998618;28;45414;-46
2023/08/13 04:00:38;;;;;;;;;3.25;2.50;;;;;20.68;59.31;101375.53;4998798;28;45389;-46
2023/08/13 04:03:04;;;;;;;;;4.50;3.00;;;;;20.68;59.50;101387.19;4998365;28;46657;-46
2023/08/13 04:05:29;;;;;;;;;8.25;2.00;;;;;20.65;59.27;101392.19;4998398;28;45321;-46
2023/08/13 04:07:55;;;;;;;;;2.00;2.00;;;;;20.62;59.37;101381.75;4998491;28;45396;-45
2023/08/13 04:10:20;;;;;;;;;5.25;3.00;;;;;20.61;59.21;101380.09;4998619;28;45461;-46
2023/08/13 04:12:45;;;;;;;;;5.50;2.50;;;;;20.56;60.03;101385.22;4998074;28;45957;-43
2023/08/13 04:15:11;;;;;;;;;6.00;3.50;;;;;20.58;60.13;101402.09;4998532;28;45291;-44
2023/08/13 04:17:36;;;;;;;;;6.75;4.00;;;;;20.51;60.13;101388.53;4998279;28;45421;-47
2023/08/13 04:20:03;;;;;;;;;4.00;3.00;;;;;20.46;60.25;101382.84;4998076;28;45619;-47
2023/08/13 04:22:29;;;;;;;;;3.00;2.00;;;;;20.46;59.99;101390.94;4997985;28;46337;-45
2023/08/13 04:24:54;;;;;;;;;4.25;2.00;;;;;20.44;60.99;101393.03;4997426;28;45466;-45
2023/08/13 04:27:20;;;;;;;;;6.00;4.00;;;;;20.40;60.65;101391.75;4997589;28;45491;-48
2023/08/13 04:29:46;;;;;;;;;3.00;3.00;;;;;20.41;60.72;101396.94;4998224;28;45391;-44
2023/08/13 04:32:11;;;;;;;;;2.75;2.00;;;;;20.40;60.85;101397.16;4997808;28;47563;-47
2023/08/13 04:34:37;;;;;;;;;4.75;3.00;;;;;20.36;60.95;101398.56;4997811;28;45411;-46
2023/08/13 04:37:02;;;;;;;;;4.75;3.00;;;;;20.25;61.28;101382.88;4997814;28;45436;-47
2023/08/13 04:39:28;;;;;;;;;5.75;3.00;;;;;20.23;61.21;101387.66;4998197;28;45305;-47
2023/08/13 04:41:58;;;;;;;;;3.50;3.00;;;;;20.21;60.87;101395.09;4997696;28;45447;-47
2023/08/13 04:44:24;;;;;;;;;2.80;2.80;;;;;20.19;61.20;101393.44;4997756;28;45488;-46
2023/08/13 04:46:49;;;;;;;;;7.25;2.00;;;;;20.18;61.82;101399.00;4998075;28;45487;-47
2023/08/13 04:49:14;;;;;;;;;3.75;2.75;;;;;20.13;61.69;101391.50;4998195;28;45349;-46
2023/08/13 04:51:40;;;;;;;;;4.00;3.00;;;;;19.98;62.06;101360.22;4996258;28;45917;-45
2023/08/13 04:54:05;;;;;;;;;7.75;3.00;;;;;20.17;62.44;101392.78;4997571;28;45324;-45
2023/08/13 04:56:31;;;;;;;;;4.00;3.00;;;;;20.19;62.31;101390.75;4997921;28;45735;-47
2023/08/13 04:58:56;;;;;;;;;2.75;2.75;;;;;20.19;61.51;101385.34;4997804;28;45309;-49
2023/08/13 05:01:22;;;;;;;;;4.50;3.25;;;;;20.22;61.63;101391.38;4997901;28;46506;-46
2023/08/13 05:03:47;;;;;;;;;6.50;3.00;;;;;20.24;62.19;101400.13;4997517;28;45388;-46
2023/08/13 05:06:12;;;;;;;;;3.00;3.00;;;;;20.16;62.13;101380.31;4997741;28;45409;-44
2023/08/13 05:08:38;;;;;;;;;3.75;3.00;;;;;20.24;61.49;101403.66;4997813;28;45852;-47
2023/08/13 05:11:03;;;;;;;;;6.00;4.00;;;;;20.23;61.77;101385.78;4997236;28;47068;-46
2023/08/13 05:13:28;;;;;;;;;8.00;3.00;;;;;20.28;62.08;101399.53;4997222;28;45480;-46
2023/08/13 05:15:54;;;;;;;;;14.50;7.25;;;;;20.28;61.82;101394.13;4997075;28;45283;-46
2023/08/13 05:18:19;;;;;;;;;4.00;4.00;;;;;20.33;61.87;101391.69;4997498;28;45366;-49
2023/08/13 05:20:46;;;;;;;;;6.75;3.00;;;;;20.32;61.43;101387.31;4997152;28;45909;-47
2023/08/13 05:23:11;;;;;;;;;3.50;3.50;;;;;20.34;61.76;101387.94;4996883;28;45306;-48
2023/08/13 05:25:38;;;;;;;;;4.00;3.00;;;;;20.38;62.27;101396.50;4997128;28;45390;-46
2023/08/13 05:28:08;;;;;;;;;7.25;3.00;;;;;20.42;61.95;101395.91;4997258;28;45243;-45
2023/08/13 05:30:36;;;;;;;;;4.75;3.00;;;;;20.46;61.89;101393.66;4996923;28;46108;-48
2023/08/13 05:33:02;;;;;;;;;5.50;4.00;;;;;20.50;61.43;101396.84;4996992;28;45443;-47
2023/08/13 05:35:27;;;;;;;;;4.00;3.00;;;;;20.51;61.48;101391.22;4997172;28;45600;-47
2023/08/13 05:37:52;;;;;;;;;4.00;2.25;;;;;20.52;61.33;101390.22;4996986;28;45420;-44
2023/08/13 05:40:18;;;;;;;;;5.00;1.00;;;;;20.54;61.46;101392.72;4996887;28;45366;-47
2023/08/13 05:42:45;;;;;;;;;4.50;2.75;;;;;20.55;61.68;101400.59;4996762;28;48308;-45
2023/08/13 05:45:11;;;;;;;;;5.50;2.00;;;;;20.58;61.51;101400.22;4996978;28;45358;-52
2023/08/13 05:47:36;;;;;;;;;4.00;3.00;;;;;20.61;61.10;101402.53;4997129;28;45601;-45
2023/08/13 05:50:01;;;;;;;;;5.25;2.00;;;;;20.63;61.42;101397.75;4996690;28;46357;-44
2023/08/13 05:52:28;;;;;;;;;5.50;4.00;;;;;20.68;61.08;101402.56;4996684;28;45496;-45
2023/08/13 05:54:53;;;;;;;;;4.50;3.25;;;;;20.71;61.22;101406.75;4996702;28;45475;-44
2023/08/13 05:57:18;;;;;;;;;6.75;3.50;;;;;20.72;60.89;101403.84;4996956;28;45484;-47
2023/08/13 05:59:44;;;;;;;;;4.00;3.00;;;;;20.75;61.28;101405.34;4996589;28;46083;-46
2023/08/13 06:02:09;;;;;;;;;4.00;3.00;;;;;20.77;61.26;101404.09;4996637;28;45323;-44
2023/08/13 06:04:36;;;;;;;;;6.00;3.00;;;;;20.80;60.92;101403.69;4996853;28;45512;-46
2023/08/13 06:07:03;;;;;;;;;4.25;3.00;;;;;20.93;60.78;101408.34;4996741;28;45540;-45
2023/08/13 06:09:29;;;;;;;;;6.00;3.50;;;;;20.93;60.58;101402.94;4996344;28;45856;-47
2023/08/13 06:11:54;;;;;;;;;5.50;2.00;;;;;20.93;60.63;101409.19;4996354;28;45342;-44
2023/08/13 06:14:19;;;;;;;;;7.00;3.00;;;;;20.98;60.54;101413.16;4996475;28;45423;-46
2023/08/13 06:16:45;;;;;;;;;4.75;3.00;;;;;21.04;60.92;101413.22;4996793;28;45383;-45
2023/08/13 06:19:10;;;;;;;;;5.25;3.00;;;;;21.07;60.72;101407.41;4996124;28;46320;-45
2023/08/13 06:21:35;;;;;;;;;4.00;2.25;;;;;21.13;60.34;101413.91;4995464;28;45427;-48
2023/08/13 06:24:00;;;;;;;;;6.25;2.50;;;;;21.18;60.11;101414.94;4996503;28;45323;-44
2023/08/13 06:26:26;;;;;;;;;4.00;3.00;;;;;21.28;59.55;101413.75;4996552;28;45564;-50
2023/08/13 06:28:51;;;;;;;;;3.75;3.75;;;;;21.39;59.77;101418.63;4995929;28;46240;-44
2023/08/13 06:31:17;;;;;;;;;4.50;2.00;;;;;21.41;59.30;101413.84;4996042;28;45256;-43
2023/08/13 06:33:42;;;;;;;;;3.75;2.00;;;;;21.45;59.65;101414.25;4996338;28;45457;-46
2023/08/13 06:36:07;;;;;;;;;3.00;2.75;;;;;21.43;59.08;101409.06;4996439;28;45315;-44
2023/08/13 06:38:34;;;;;;;;;2.50;2.25;;;;;21.38;59.48;101408.84;4995957;28;46309;-48
2023/08/13 06:41:04;;;;;;;;;3.20;2.00;;;;;21.47;59.50;101417.63;4995989;28;45454;-48
2023/08/13 06:43:29;;;;;;;;;2.50;2.00;;;;;21.48;59.28;101414.69;4996129;28;45450;-48
2023/08/13 06:45:54;;;;;;;;;2.00;2.00;;;;;21.50;59.21;101415.34;4996361;28;45284;-46
2023/08/13 06:48:20;;;;;;;;;4.75;3.00;;;;;21.49;59.28;101412.81;4996094;28;47113;-45
2023/08/13 06:50:48;;;;;;;;;4.00;2.25;;;;;21.56;58.71;101409.13;4999412;28;45258;-45
2023/08/13 06:53:14;;;;;;;;;6.80;2.00;;;;;21.61;58.91;101409.31;4999622;28;45399;-46
2023/08/13 06:55:39;;;;;;;;;2.75;2.75;;;;;21.62;58.44;101415.59;4999692;28;45442;-47
2023/08/13 06:58:04;;;;;;;;;2.25;2.00;;;;;21.68;58.95;101412.91;4999130;28;47010;-45
2023/08/13 07:00:30;;;;;;;;;5.50;3.50;;;;;21.76;58.35;101416.47;4999581;28;45370;-42
2023/08/13 07:02:55;;;;;;;;;2.00;2.00;;;;;21.80;58.31;101406.91;4999384;28;45384;-44
2023/08/13 07:05:21;;;;;;;;;4.50;2.75;;;;;21.88;57.76;101412.13;4999727;28;45408;-46
2023/08/13 07:07:46;;;;;;;;;5.00;2.00;;;;;21.96;58.04;101422.78;4999222;28;47063;-43
2023/08/13 07:10:12;;;;;;;;;1.75;1.00;;;;;22.00;57.72;101404.25;4999315;28;45417;-43
2023/08/13 07:12:37;;;;;;;;;6.00;1.00;;;;;22.15;57.32;101416.56;4999349;28;45372;-45
2023/08/13 07:15:03;;;;;;;;;1.75;1.50;;;;;22.24;56.66;101425.34;4999374;28;45396;-48
2023/08/13 07:17:29;;;;;;;;;1.75;1.75;;;;;22.30;56.41;101426.41;4998981;28;46983;-46
2023/08/13 07:19:54;;;;;;;;;1.00;1.00;;;;;22.37;56.10;101425.34;4999248;28;45536;-46
2023/08/13 07:22:21;;;;;;;;;3.25;3.00;;;;;22.67;55.56;101424.94;4998963;28;45250;-44
2023/08/13 07:24:47;;;;;;;;;3.00;2.00;;;;;23.00;54.58;101422.19;4998969;28;45606;-46
2023/08/13 07:27:13;;;;;;;;;4.20;1.40;;;;;23.62;52.90;101414.44;4999109;28;45456;-45
2023/08/13 07:29:38;;;;;;;;;1.75;1.75;;;;;24.24;51.92;101417.44;4998702;28;45544;-46
2023/08/13 07:32:04;;;;;;;;;4.25;2.00;;;;;24.66;50.67;101413.16;4999163;28;45467;-46
2023/08/13 07:34:29;;;;;;;;;3.75;1.00;;;;;24.83;50.47;101418.84;4999188;28;45318;-47
2023/08/13 07:36:55;;;;;;;;;0.00;0.00;;;;;25.01;49.89;101418.03;4998898;28;46604;-47
2023/08/13 07:39:21;;;;;;;;;4.25;3.00;;;;;25.14;49.45;101405.13;4998906;28;45370;-45
2023/08/13 07:41:48;;;;;;;;;3.40;2.80;;;;;25.48;48.22;101410.16;4998625;28;45419;-46
2023/08/13 07:44:13;;;;;;;;;2.60;1.00;;;;;25.87;47.81;101409.66;4999250;28;45211;-43
2023/08/13 07:46:39;;;;;;;;;3.00;0.50;;;;;26.24;46.67;101405.94;4998598;28;46131;-47
2023/08/13 07:49:04;;;;;;;;;3.25;3.00;;;;;26.48;46.40;101402.22;4998759;28;45514;-46
2023/08/13 07:51:30;;;;;;;;;1.50;1.50;;;;;26.88;45.69;101401.47;4998606;28;45372;-47
2023/08/13 07:53:55;;;;;;;;;2.00;1.50;;;;;27.77;44.32;101406.63;4998770;28;45289;-47
2023/08/13 07:56:20;;;;;;;;;2.50;2.50;;;;;28.32;43.52;101397.75;4998635;28;45317;-46
2023/08/13 07:58:46;;;;;;;;;6.50;3.50;;;;;28.69;42.75;101397.25;4998477;28;45321;-44
2023/08/13 08:01:12;;;;;;;;;5.50;1.50;;;;;28.78;41.25;101401.19;4998777;28;45361;-46
2023/08/13 08:03:37;;;;;;;;;4.00;2.40;;;;;29.04;40.76;101397.78;4998660;28;45502;-46
2023/08/13 08:06:04;;;;;;;;;2.75;2.75;;;;;29.03;40.47;101387.06;4998316;28;47161;-47
2023/08/13 08:08:30;;;;;;;;;3.60;2.00;;;;;29.17;40.35;101403.97;4998536;28;45475;-45
2023/08/13 08:10:55;;;;;;;;;4.75;0.50;;;;;29.25;39.53;101404.34;4998366;28;45401;-46
2023/08/13 08:13:21;;;;;;;;;3.75;2.00;;;;;29.31;40.65;101403.31;4998990;28;45433;-46
2023/08/13 08:15:46;;;;;;;;;3.25;0.50;;;;;29.23;41.58;101394.72;4998447;28;47002;-46
2023/08/13 08:18:11;;;;;;;;;3.00;1.00;;;;;29.07;39.64;101394.50;4998298;28;45363;-45
2023/08/13 08:20:37;;;;;;;;;6.25;0.00;;;;;29.12;40.22;101395.66;4998497;28;45349;-44
2023/08/13 08:23:02;;;;;;;;;1.00;1.00;;;;;29.20;38.88;101401.56;4998210;28;45313;-47
2023/08/13 08:25:28;;;;;;;;;1.50;1.25;;;;;29.45;38.77;101397.44;4998358;28;45306;-46
2023/08/13 08:27:53;;;;;;;;;2.50;0.25;;;;;30.07;37.39;101397.00;4998037;28;45424;-47
2023/08/13 08:30:19;;;;;;;;;1.00;1.00;;;;;30.35;37.20;101390.41;4998359;28;45521;-45
2023/08/13 08:32:44;;;;;;;;;3.00;1.00;;;;;30.58;36.88;101398.25;4998443;28;45543;-44
2023/08/13 08:35:10;;;;;;;;;1.75;1.75;;;;;30.81;37.12;101394.31;4998170;28;46153;-47
2023/08/13 08:37:35;;;;;;;;;1.00;1.00;;;;;30.38;37.08;101391.78;4997835;28;45418;-44
2023/08/13 08:40:02;;;;;;;;;1.00;1.00;;;;;30.06;38.99;101389.88;4998238;28;45549;-46
2023/08/13 08:42:30;;;;;;;;;1.20;0.80;;;;;29.72;37.61;101392.84;4998238;28;45282;-46
2023/08/13 08:44:58;;;;;;;;;1.00;1.00;;;;;29.33;38.79;101384.72;4997883;28;45727;-45
2023/08/13 08:47:24;;;;;;;;;2.40;1.00;;;;;29.33;38.46;101389.38;4997847;28;45220;-46
2023/08/13 08:49:51;;;;;;;;;4.20;0.00;;;;;29.41;38.56;101385.31;4997867;28;45440;-47
2023/08/13 08:52:18;;;;;;;;;1.40;1.40;;;;;29.30;39.04;101381.66;4998140;28;45364;-44
2023/08/13 08:54:47;;;;;;;;;3.60;1.00;;;;;29.06;39.48;101367.38;4997823;28;46140;-45
2023/08/13 08:57:12;;;;;;;;;1.00;1.00;;;;;29.16;38.53;101377.63;4997752;28;45410;-45
2023/08/13 08:59:38;;;;;;;;;2.00;0.00;;;;;29.23;37.88;101383.75;4997774;28;45385;-45
2023/08/13 09:02:04;;;;;;;;;0.20;0.00;;;;;29.03;39.03;101385.16;4998022;28;45304;-44
2023/08/13 09:04:29;;;;;;;;;1.00;1.00;;;;;28.90;38.83;101368.22;4997620;28;45446;-46
2023/08/13 09:06:56;;;;;;;;;1.50;1.00;;;;;28.84;39.29;101386.50;4997444;28;45571;-46
2023/08/13 09:09:22;;;;;;;;;1.20;1.20;;;;;28.83;38.44;101387.59;4997950;28;45397;-47
2023/08/13 09:11:48;;;;;;;;;2.00;1.00;;;;;28.96;38.90;101395.47;4997130;28;45470;-49
2023/08/13 09:14:14;;;;;;;;;4.00;2.00;;;;;28.96;38.18;101387.25;4997178;28;46115;-46
2023/08/13 09:16:53;;;;;;;;;3.00;0.00;;;;;28.81;38.47;101392.50;4997585;28;45371;-47
2023/08/13 09:19:22;;;;;;;;;1.20;0.00;;;;;28.99;38.71;101388.66;4997572;28;45455;-48
2023/08/13 09:21:51;;;;;;;;;2.20;2.20;;;;;29.29;36.93;101393.72;4997127;28;45552;-46
2023/08/13 09:24:18;;;;;;;;;3.00;1.00;;;;;29.34;37.63;101389.09;4997090;28;47427;-45
2023/08/13 09:26:44;;;;;;;;;2.00;0.60;;;;;29.54;37.61;101385.78;4997205;28;45338;-48
2023/08/13 09:29:09;;;;;;;;;0.40;0.00;;;;;29.76;36.61;101388.50;4997221;28;45367;-46
2023/08/13 09:31:36;;;;;;;;;1.00;0.00;;;;;30.26;36.03;101387.31;4997296;28;45489;-46
2023/08/13 09:34:02;;;;;;;;;1.80;1.40;;;;;31.53;34.04;101389.94;4996729;28;46246;-47
2023/08/13 09:36:28;;;;;;;;;1.60;1.00;;;;;32.80;32.62;101380.06;4996987;28;45369;-48
2023/08/13 09:38:53;;;;;;;;;0.00;0.00;;;;;33.67;31.40;101382.44;4997197;28;45271;-47
2023/08/13 09:41:20;;;;;;;;;0.50;0.50;;;;;34.23;31.42;101373.75;4997561;28;45413;-43
2023/08/13 09:43:49;;;;;;;;;0.60;0.60;;;;;34.48;30.44;101367.19;4996984;28;46257;-45
2023/08/13 09:46:20;;;;;;;;;3.40;0.60;;;;;34.79;29.56;101373.19;4997005;28;45330;-47
2023/08/13 09:48:53;;;;;;;;;1.00;1.00;;;;;34.97;29.31;101371.56;4997278;28;45325;-44
2023/08/13 09:51:25;;;;;;;;;0.60;0.60;;;;;34.91;28.91;101364.47;4997468;28;45894;-49
2023/08/13 09:53:56;;;;;;;;;2.40;1.00;;;;;34.69;29.77;101367.78;4996630;28;47530;-46
2023/08/13 09:56:22;;;;;;;;;0.20;0.20;;;;;34.56;30.58;101355.50;4995460;28;45408;-46
2023/08/13 09:58:47;;;;;;;;;0.00;0.00;;;;;34.48;29.69;101359.72;4995124;28;45425;-47
2023/08/13 10:01:13;;;;;;;;;0.50;0.00;;;;;34.21;29.85;101365.75;4997009;28;45441;-48
2023/08/13 10:03:39;;;;;;;;;0.00;0.00;;;;;34.44;29.19;101366.91;4996708;28;46572;-45
2023/08/13 10:06:04;;;;;;;;;3.75;0.50;;;;;34.06;31.65;101367.84;4996924;28;45329;-49
2023/08/13 10:08:30;;;;;;;;;1.00;1.00;;;;;33.94;29.86;101362.66;4996679;28;45377;-44
2023/08/13 10:10:56;;;;;;;;;0.50;0.50;;;;;34.45;29.04;101356.69;4996857;28;45494;-44
2023/08/13 10:13:21;;;;;;;;;0.00;0.00;;;;;35.57;28.01;101362.81;4996608;28;46717;-46
2023/08/13 10:15:48;;;;;;;;;1.25;0.00;;;;;36.43;26.74;101361.34;4996555;28;45432;-50
2023/08/13 10:18:16;;;;;;;;;0.80;0.00;;;;;37.34;25.89;101357.84;4996876;28;45419;-48
2023/08/13 10:20:45;;;;;;;;;0.20;0.20;;;;;38.61;24.64;101364.16;4996700;28;45426;-45
2023/08/13 10:23:11;;;;;;;;;0.00;0.00;;;;;39.29;24.33;101368.28;4995375;28;46232;-46
2023/08/13 10:25:38;;;;;;;;;3.20;0.00;;;;;40.13;25.96;101357.78;4996224;28;45449;-45
2023/08/13 10:28:20;;;;;;;;;0.20;0.20;;;;;40.47;25.14;101369.97;4996324;28;45477;-46
2023/08/13 10:30:46;;;;;;;;;4.40;1.80;;;;;41.27;22.74;101367.25;4996534;28;45462;-45
2023/08/13 10:33:13;;;;;;;;;1.00;1.00;;;;;41.49;21.17;101366.94;4996308;28;45592;-45
2023/08/13 10:35:39;;;;;;;;;2.00;0.60;;;;;42.73;22.73;101363.31;4996135;28;45452;-47
2023/08/13 10:38:05;;;;;;;;;1.00;0.00;;;;;43.26;19.66;101356.63;4996646;28;45254;-44
2023/08/13 10:40:31;;;;;;;;;1.00;1.00;;;;;42.93;19.65;101351.19;4996379;28;45528;-46
2023/08/13 10:43:01;;;;;;;;;2.25;1.00;;;;;42.89;21.89;101350.25;4996197;28;46344;-44
2023/08/13 10:45:35;;;;;;;;;1.20;1.00;;;;;42.87;20.76;101349.81;4996019;28;45505;-47
2023/08/13 10:48:05;;;;;;;;;0.80;0.80;;;;;43.00;20.07;101353.41;4996227;28;45361;-48
2023/08/13 10:50:43;;;;;;;;;1.60;1.00;;;;;43.80;21.41;101346.97;4996534;28;45321;-47
2023/08/13 10:53:27;;;;;;;;;1.80;0.00;;;;;43.51;19.57;101354.56;4995901;28;46618;-45
2023/08/13 10:55:55;;;;;;;;;0.00;0.00;;;;;42.75;20.05;101335.81;4996162;28;45639;-47
2023/08/13 10:58:37;;;;;;;;;2.40;1.40;;;;;42.16;20.76;101337.03;4996026;28;45396;-44
2023/08/13 11:01:08;;;;;;;;;0.00;0.00;;;;;43.12;19.50;101342.22;4995080;28;45483;-45
2023/08/13 11:03:33;;;;;;;;;3.80;2.00;;;;;41.94;20.55;101346.66;4995717;28;46569;-47
2023/08/13 11:06:02;;;;;;;;;4.50;1.25;;;;;42.95;20.52;101334.06;4995944;28;45438;-48
2023/08/13 11:08:27;;;;;;;;;1.20;0.80;;;;;42.50;20.50;101340.59;4996078;28;45369;-46
2023/08/13 11:10:53;;;;;;;;;0.00;0.00;;;;;42.71;21.87;101337.69;4995971;28;45320;-46
2023/08/13 11:13:19;;;;;;;;;2.00;2.00;;;;;40.64;22.41;101326.13;4995814;28;45295;-51
2023/08/13 11:15:54;;;;;;;;;4.00;0.80;;;;;38.74;23.46;101334.59;4995609;28;45551;-45
2023/08/13 11:18:21;;;;;;;;;3.40;1.00;;;;;37.17;25.23;101329.97;4995815;28;45397;-46
2023/08/13 11:20:48;;;;;;;;;4.20;1.40;;;;;35.71;26.59;101324.94;4996185;28;45529;-46